Oak Park, IL (60301)

3:12 PM CDT on August 01, 2015 (GMT -0500)
Oak Park | | Change Station
CLOSE
Current Station
Personal Weather Station
Location: Oak Park, IL
Elevation: 633 ft
Nearby Weather Stations

Elev 633 ft 41.91 °N, 87.80 °W | Updated 5 seconds ago

Partly Cloudy
Partly Cloudy
89.6 °F
Feels Like 89 °F
N
0.9
Wind Variable Wind from SSE
Gusts 2.5 mph

Today
High -- | Low -- °F
--% Chance of Precip.
Yesterday
High -- | Low -- °F
Precip. -- in
5:44 AM 8:09 PM
Full, 97% visible
Pressure 29.90 in
Visibility 10.0 miles
Clouds Scattered Clouds 7000 ft
Scattered Clouds 14000 ft
Heat Index 89 °F
Dew Point 61 °F
Humidity 38%
Rainfall in
Snow Depth Not available.
UV 7 out of 12
Pollen 8.00 out of 12
Air Quality Not available.
Flu Activity Not available.
METAR KMDW 011953Z 31013G21KT 10SM SCT070 SCT140 31/12 A2993 RMK AO2 SLP123 T03110117

More Conditions Fewer Conditions

Pressure 29.90 in
Visibility 10.0 miles
Clouds Scattered Clouds 7000 ft
Scattered Clouds 14000 ft
Heat Index 89 °F
Dew Point 61 °F
Humidity 38%
Rainfall in
Snow Depth Not available.
UV 7 out of 12
Pollen 8.00 out of 12
Air Quality Not available.
Flu Activity Not available.
METAR KMDW 011953Z 31013G21KT 10SM SCT070 SCT140 31/12 A2993 RMK AO2 SLP123 T03110117

More Conditions Fewer Conditions

10-Day Weather Forecast

×

Almanac

Astronomy

Aug. 01, 2015 Rise Set
Actual Time
Civil Twilight
Nautical Twilight
Astronomical Twilight
Moon
Length of Visible Light
Length of Day
Tomorrow will be .
, % of the Moon is Illuminated

Today's Extremes

State Highs State Lows

Community

WunderPhotos

Upload Photos

1,843,048 photos uploaded!

WunderBlogs® & News

Nearby

Air Quality

  Air Quality AQ Index Pollutant
Not available.

Snow Depth

Station Depth Elevation

Earthquake Activity

City Distance Mag. Time & Date
Minimum magnitude displayed is 2.5.

Coastal Water Temperatures

Place Temperature

Stations

Nearby Weather Stations

Station Location Temp. Windchill Dew Point Humidity Wind Precip. Elev Updated Type